createdAt,value
2023-10-09T00:02:11.384Z,2.40
2023-10-09T00:04:43.377Z,1.67
2023-10-09T00:07:12.530Z,1.33
2023-10-09T00:09:49.728Z,2.72
2023-10-09T00:12:25.290Z,7.10
2023-10-09T00:14:57.524Z,13.83
2023-10-09T00:17:25.246Z,6.97
2023-10-09T00:19:53.249Z,3.40
2023-10-09T00:22:27.579Z,2.05
2023-10-09T00:25:13.436Z,1.38
2023-10-09T00:27:44.611Z,1.25
2023-10-09T00:30:19.315Z,1.45
2023-10-09T00:33:07.898Z,1.45
2023-10-09T00:35:41.106Z,1.20
2023-10-09T00:38:25.624Z,1.30
2023-10-09T00:41:11.952Z,1.40
2023-10-09T00:43:40.084Z,1.53
2023-10-09T00:46:18.030Z,2.20
2023-10-09T00:48:45.997Z,2.85
2023-10-09T00:51:20.134Z,2.30
2023-10-09T00:53:54.020Z,1.80
2023-10-09T00:56:28.682Z,1.73
2023-10-09T00:59:21.343Z,1.30
2023-10-09T01:01:58.427Z,1.67
2023-10-09T01:04:27.688Z,1.48
2023-10-09T01:07:16.885Z,1.40
2023-10-09T01:09:46.058Z,1.50
2023-10-09T01:12:19.747Z,1.20
2023-10-09T01:14:54.120Z,1.52
2023-10-09T01:17:31.013Z,1.52
2023-10-09T01:19:59.576Z,1.50
2023-10-09T01:22:26.478Z,1.50
2023-10-09T01:24:56.959Z,1.42
2023-10-09T01:27:27.201Z,1.88
2023-10-09T01:29:54.275Z,1.55
2023-10-09T01:32:21.667Z,1.45
2023-10-09T01:34:52.251Z,1.10
2023-10-09T01:37:31.891Z,1.70
2023-10-09T01:40:20.488Z,1.50
2023-10-09T01:42:47.347Z,1.52
2023-10-09T01:45:20.556Z,1.42
2023-10-09T01:47:53.472Z,1.38
2023-10-09T01:50:26.106Z,1.60
2023-10-09T01:52:53.495Z,1.70
2023-10-09T01:55:41.713Z,1.45
2023-10-09T01:58:25.776Z,1.40
2023-10-09T02:00:57.211Z,1.35
2023-10-09T02:03:25.949Z,1.48
2023-10-09T02:06:01.366Z,1.88
2023-10-09T02:08:28.648Z,1.77
2023-10-09T02:10:58.592Z,1.73
2023-10-09T02:13:32.943Z,1.38
2023-10-09T02:16:29.908Z,1.88
2023-10-09T02:19:09.321Z,1.70
2023-10-09T02:21:41.864Z,1.58
2023-10-09T02:24:14.414Z,1.67
2023-10-09T02:26:41.496Z,1.30
2023-10-09T02:29:11.350Z,1.33
2023-10-09T02:31:42.360Z,1.70
2023-10-09T02:34:09.567Z,1.92
2023-10-09T02:36:39.823Z,1.88
2023-10-09T02:39:07.726Z,1.38
2023-10-09T02:41:35.960Z,1.42
2023-10-09T02:44:12.811Z,1.50
2023-10-09T02:46:41.590Z,1.50
2023-10-09T02:49:10.852Z,1.50
2023-10-09T02:51:54.173Z,1.73
2023-10-09T02:54:23.716Z,1.63
2023-10-09T02:57:08.674Z,1.73
2023-10-09T02:59:39.934Z,1.70
2023-10-09T03:02:07.192Z,1.48
2023-10-09T03:04:34.988Z,1.63
2023-10-09T03:07:02.608Z,1.88
2023-10-09T03:09:29.953Z,1.77
2023-10-09T03:12:05.235Z,1.80
2023-10-09T03:14:36.470Z,1.80
2023-10-09T03:17:04.168Z,1.95
2023-10-09T03:19:38.957Z,1.90
2023-10-09T03:22:12.205Z,2.47
2023-10-09T03:24:51.646Z,2.80
2023-10-09T03:27:19.783Z,2.50
2023-10-09T03:29:55.417Z,1.60
2023-10-09T03:32:22.601Z,1.90
2023-10-09T03:34:53.056Z,2.03
2023-10-09T03:37:36.152Z,2.10
2023-10-09T03:40:07.439Z,1.92
2023-10-09T03:42:37.734Z,1.70
2023-10-09T03:45:14.115Z,2.13
2023-10-09T03:50:28.391Z,2.08
2023-10-09T03:52:56.688Z,2.28
2023-10-09T03:55:29.170Z,2.45
2023-10-09T03:57:58.837Z,2.40
2023-10-09T04:15:02.666Z,2.33
2023-10-09T04:17:36.351Z,2.35
2023-10-09T04:20:20.883Z,2.45
2023-10-09T04:23:07.142Z,2.17
2023-10-09T04:25:43.549Z,2.22
2023-10-09T04:28:21.010Z,1.98
2023-10-09T04:30:55.304Z,2.00
2023-10-09T04:33:49.964Z,2.35
2023-10-09T04:36:19.723Z,2.20
2023-10-09T04:39:05.683Z,2.90
2023-10-09T04:41:53.644Z,3.37
2023-10-09T04:44:24.352Z,2.67
2023-10-09T04:47:25.432Z,2.85
2023-10-09T04:49:58.178Z,2.50
2023-10-09T04:52:31.730Z,2.95
2023-10-09T04:55:12.089Z,8.10
2023-10-09T04:58:02.169Z,4.32
2023-10-09T05:00:29.926Z,3.85
2023-10-09T05:03:28.547Z,3.05
2023-10-09T05:06:07.131Z,2.90
2023-10-09T05:08:34.259Z,3.28
2023-10-09T05:11:03.658Z,3.00
2023-10-09T05:13:43.181Z,3.55
2023-10-09T05:16:21.088Z,2.83
2023-10-09T05:18:58.593Z,3.30
2023-10-09T05:21:33.193Z,3.00
2023-10-09T05:24:20.590Z,3.80
2023-10-09T05:26:48.928Z,3.58
2023-10-09T05:29:34.998Z,3.20
2023-10-09T05:32:15.556Z,3.28
2023-10-09T05:35:00.791Z,3.80
2023-10-09T05:37:36.315Z,3.30
2023-10-09T05:40:19.333Z,3.30
2023-10-09T05:42:59.126Z,3.42
2023-10-09T05:45:45.485Z,3.63
2023-10-09T05:48:15.520Z,3.60
2023-10-09T05:50:57.647Z,3.80
2023-10-09T05:53:36.631Z,4.78
2023-10-09T05:56:22.189Z,4.38
2023-10-09T05:59:15.529Z,3.95
2023-10-09T06:01:51.942Z,3.60
2023-10-09T06:04:21.254Z,3.65
2023-10-09T06:06:57.993Z,3.22
2023-10-09T06:09:45.280Z,3.20
2023-10-09T06:12:30.948Z,3.42
2023-10-09T06:15:20.294Z,2.97
2023-10-09T06:17:53.880Z,2.90
2023-10-09T06:20:39.552Z,3.65
2023-10-09T06:23:29.193Z,2.85
2023-10-09T06:26:06.921Z,2.97
2023-10-09T06:28:36.710Z,3.30
2023-10-09T06:31:23.612Z,5.10
2023-10-09T06:36:54.450Z,4.47
2023-10-09T06:39:40.335Z,3.70
2023-10-09T06:42:17.724Z,3.95
2023-10-09T06:44:53.864Z,3.65
2023-10-09T06:47:25.425Z,4.13
2023-10-09T06:50:11.075Z,3.63
2023-10-09T06:52:56.585Z,3.75
2023-10-09T06:55:34.152Z,3.95
2023-10-09T06:58:11.443Z,3.50
2023-10-09T07:01:13.505Z,4.43
2023-10-09T07:03:53.659Z,3.40
2023-10-09T07:06:26.160Z,2.95
2023-10-09T07:09:06.503Z,2.78
2023-10-09T07:11:43.890Z,2.45
2023-10-09T07:14:53.857Z,2.80
2023-10-09T07:17:23.773Z,2.85
2023-10-09T07:19:51.977Z,3.47
2023-10-09T07:22:22.194Z,3.05
2023-10-09T07:24:59.315Z,2.88
2023-10-09T07:27:45.666Z,3.17
2023-10-09T07:30:47.165Z,3.30
2023-10-09T07:33:14.665Z,2.85
2023-10-09T07:35:58.945Z,2.90
2023-10-09T07:38:36.759Z,3.00
2023-10-09T07:41:07.234Z,3.20
2023-10-09T07:43:58.748Z,3.15
2023-10-09T07:46:31.875Z,3.20
2023-10-09T07:49:13.763Z,3.10
2023-10-09T07:51:45.488Z,3.10
2023-10-09T07:54:16.304Z,3.28
2023-10-09T07:56:47.753Z,2.50
2023-10-09T07:59:19.540Z,2.30
2023-10-09T08:07:04.286Z,2.08
2023-10-09T08:09:48.520Z,1.90
2023-10-09T08:12:37.448Z,2.10
2023-10-09T08:15:20.698Z,1.90
2023-10-09T08:18:14.346Z,2.33
2023-10-09T08:20:59.378Z,2.00
2023-10-09T08:23:49.604Z,2.35
2023-10-09T08:26:30.504Z,3.13
2023-10-09T08:29:16.602Z,2.20
2023-10-09T08:31:47.157Z,2.37
2023-10-09T08:36:57.645Z,2.92
2023-10-09T08:39:28.243Z,2.38
2023-10-09T08:41:59.462Z,2.30
2023-10-09T08:44:30.675Z,2.83
2023-10-09T08:46:58.664Z,2.38
2023-10-09T08:49:27.785Z,2.47
2023-10-09T08:51:54.961Z,2.42
2023-10-09T08:54:22.189Z,2.83
2023-10-09T08:56:52.387Z,2.70
2023-10-09T08:59:20.827Z,2.95
2023-10-09T09:01:53.506Z,2.50
2023-10-09T09:04:53.677Z,2.47
2023-10-09T09:07:30.501Z,2.45
2023-10-09T09:10:19.077Z,3.03
2023-10-09T09:12:46.625Z,2.83
2023-10-09T09:15:22.180Z,2.67
2023-10-09T09:17:52.784Z,2.70
2023-10-09T09:20:35.958Z,2.40
2023-10-09T09:23:05.922Z,2.63
2023-10-09T09:25:49.609Z,2.85
2023-10-09T09:28:22.973Z,2.70
2023-10-09T09:30:52.598Z,2.72
2023-10-09T09:33:46.106Z,2.40
2023-10-09T09:36:13.174Z,2.22
2023-10-09T09:38:49.659Z,2.30
2023-10-09T09:41:26.429Z,2.33
2023-10-09T09:43:58.778Z,2.45
2023-10-09T09:46:35.661Z,2.17
2023-10-09T09:49:05.054Z,2.00
2023-10-09T09:51:35.831Z,2.40
2023-10-09T09:54:03.917Z,2.10
2023-10-09T09:56:32.167Z,2.15
2023-10-09T09:59:05.716Z,1.90
2023-10-09T10:01:37.921Z,2.10
2023-10-09T10:04:16.869Z,1.98
2023-10-09T10:06:46.538Z,2.20
2023-10-09T10:09:43.065Z,1.80
2023-10-09T10:12:11.243Z,1.90
2023-10-09T10:15:01.009Z,1.88
2023-10-09T10:17:31.745Z,2.15
2023-10-09T10:20:02.081Z,1.58
2023-10-09T10:22:31.890Z,1.98
2023-10-09T10:24:59.868Z,1.63
2023-10-09T10:27:27.960Z,2.13
2023-10-09T10:30:14.369Z,2.35
2023-10-09T10:33:10.829Z,2.53
2023-10-09T10:35:46.461Z,2.10
2023-10-09T10:38:36.566Z,1.83
2023-10-09T10:41:20.682Z,1.80
2023-10-09T10:43:54.430Z,1.83
2023-10-09T10:46:39.099Z,2.20
2023-10-09T10:49:33.967Z,2.33
2023-10-09T10:52:16.461Z,2.40
2023-10-09T10:54:43.352Z,1.70
2023-10-09T10:57:38.821Z,1.92
2023-10-09T11:00:31.038Z,1.95
2023-10-09T11:03:14.707Z,2.00
2023-10-09T11:05:52.030Z,1.98
2023-10-09T11:08:25.317Z,2.42
2023-10-09T11:10:52.477Z,1.70
2023-10-09T11:13:34.699Z,3.80
2023-10-09T11:16:16.648Z,4.93
2023-10-09T11:18:52.862Z,3.00
2023-10-09T11:21:19.977Z,2.10
2023-10-09T11:24:08.137Z,2.03
2023-10-09T11:26:41.964Z,3.58
2023-10-09T11:29:19.759Z,1.90
2023-10-09T11:32:07.163Z,1.90
2023-10-09T11:34:37.295Z,1.80
2023-10-09T11:37:13.436Z,1.30
2023-10-09T11:39:58.917Z,1.30
2023-10-09T11:42:48.256Z,1.45
2023-10-09T11:45:26.458Z,1.40
2023-10-09T11:48:00.750Z,1.17
2023-10-09T11:50:51.079Z,1.40
2023-10-09T11:53:24.415Z,1.90
2023-10-09T11:55:54.557Z,1.75
2023-10-09T11:58:25.866Z,1.98
2023-10-09T12:14:58.809Z,2.30
2023-10-09T12:17:27.649Z,1.65
2023-10-09T12:19:57.677Z,1.45
2023-10-09T12:22:28.663Z,1.30
2023-10-09T12:24:55.726Z,1.45
2023-10-09T12:27:23.355Z,2.42
2023-10-09T12:29:51.045Z,1.60
2023-10-09T12:32:21.000Z,1.42
2023-10-09T12:34:52.140Z,1.83
2023-10-09T12:37:22.255Z,1.35
2023-10-09T12:39:49.611Z,1.88
2023-10-09T12:42:18.410Z,2.00
2023-10-09T12:44:45.880Z,1.85
2023-10-09T12:47:13.123Z,2.28
2023-10-09T12:49:42.484Z,2.08
2023-10-09T12:52:17.909Z,1.83
2023-10-09T12:54:48.031Z,1.90
2023-10-09T12:57:15.192Z,2.10
2023-10-09T12:59:50.041Z,1.80
2023-10-09T13:05:01.378Z,2.10
2023-10-09T13:07:28.707Z,2.30
2023-10-09T13:10:11.104Z,2.10
2023-10-09T13:12:43.044Z,1.90
2023-10-09T13:15:10.956Z,2.20
2023-10-09T13:17:42.710Z,2.13
2023-10-09T13:20:17.649Z,1.90
2023-10-09T13:22:45.858Z,2.97
2023-10-09T13:25:31.239Z,2.50
2023-10-09T13:28:05.315Z,2.67
2023-10-09T13:30:41.477Z,5.80
2023-10-09T13:33:09.080Z,4.20
2023-10-09T13:35:49.674Z,3.03
2023-10-09T13:38:18.005Z,2.55
2023-10-09T13:40:45.138Z,2.80
2023-10-09T13:43:18.416Z,3.15
2023-10-09T13:45:51.553Z,3.30
2023-10-09T13:48:19.493Z,3.35
2023-10-09T13:50:46.421Z,2.95
2023-10-09T13:53:16.037Z,2.30
2023-10-09T13:55:45.341Z,2.72
2023-10-09T13:58:18.761Z,2.50
2023-10-09T14:00:47.813Z,1.90
2023-10-09T14:03:15.244Z,3.28
2023-10-09T14:05:58.587Z,2.95
2023-10-09T14:08:27.524Z,1.88
2023-10-09T14:10:56.164Z,2.47
2023-10-09T14:13:30.536Z,1.77
2023-10-09T14:16:01.515Z,2.40
2023-10-09T14:18:31.694Z,2.75
2023-10-09T14:21:06.466Z,2.38
2023-10-09T14:23:36.616Z,2.83
2023-10-09T14:26:03.696Z,2.88
2023-10-09T14:28:30.730Z,2.50
2023-10-09T14:31:00.811Z,2.50
2023-10-09T14:33:29.195Z,2.95
2023-10-09T14:35:56.564Z,2.20
2023-10-09T14:38:28.881Z,2.30
2023-10-09T14:41:02.353Z,2.65
2023-10-09T14:43:30.147Z,3.15
2023-10-09T14:45:57.283Z,3.40
2023-10-09T14:48:27.578Z,3.20
2023-10-09T14:50:55.099Z,2.47
2023-10-09T14:53:23.430Z,2.30
2023-10-09T14:55:57.676Z,2.97
2023-10-09T14:58:27.031Z,3.60
2023-10-09T15:00:55.456Z,2.50
2023-10-09T15:03:23.765Z,2.47
2023-10-09T15:05:51.300Z,2.90
2023-10-09T15:08:19.240Z,2.33
2023-10-09T15:10:50.507Z,2.63
2023-10-09T15:13:17.808Z,3.40
2023-10-09T15:15:46.987Z,3.85
2023-10-09T15:18:14.540Z,3.53
2023-10-09T15:20:56.517Z,4.05
2023-10-09T15:23:24.066Z,4.20
2023-10-09T15:25:57.064Z,4.60
2023-10-09T15:28:24.658Z,4.00
2023-10-09T15:30:52.219Z,4.88
2023-10-09T15:33:20.080Z,4.38
2023-10-09T15:35:53.356Z,4.25
2023-10-09T15:38:21.135Z,3.90
2023-10-09T15:40:49.206Z,4.43
2023-10-09T15:43:18.433Z,4.32
2023-10-09T15:45:49.412Z,6.15
2023-10-09T15:48:17.039Z,4.57
2023-10-09T15:50:52.259Z,4.45
2023-10-09T15:53:20.706Z,5.40
2023-10-09T15:55:48.091Z,6.35
2023-10-09T15:58:16.420Z,5.15
2023-10-09T16:00:47.897Z,6.07
2023-10-09T16:03:43.151Z,5.63
2023-10-09T16:06:22.282Z,5.60
2023-10-09T16:08:53.429Z,5.13
2023-10-09T16:11:25.301Z,6.65
2023-10-09T16:13:55.141Z,7.38
2023-10-09T16:16:33.004Z,7.72
2023-10-09T16:19:00.136Z,6.78
2023-10-09T16:21:28.004Z,7.20
2023-10-09T16:24:00.488Z,8.07
2023-10-09T16:26:28.272Z,7.90
2023-10-09T16:28:55.840Z,7.60
2023-10-09T16:31:41.762Z,7.35
2023-10-09T16:34:09.925Z,7.47
2023-10-09T16:36:37.894Z,5.60
2023-10-09T16:39:05.287Z,5.30
2023-10-09T16:41:41.379Z,5.85
2023-10-09T16:44:11.480Z,6.75
2023-10-09T16:46:41.289Z,5.85
2023-10-09T16:49:09.851Z,5.35
2023-10-09T16:51:36.902Z,7.25
2023-10-09T16:54:07.015Z,6.38
2023-10-09T16:56:34.924Z,6.88
2023-10-09T16:59:02.223Z,9.68
2023-10-09T17:01:29.510Z,7.70
2023-10-09T17:03:59.605Z,7.47
2023-10-09T17:06:30.445Z,8.32
2023-10-09T17:08:58.422Z,8.38
2023-10-09T17:11:26.014Z,8.95
2023-10-09T17:13:56.129Z,10.20
2023-10-09T17:16:25.941Z,10.00
2023-10-09T17:18:56.995Z,10.13
2023-10-09T17:21:25.342Z,11.15
2023-10-09T17:23:56.938Z,9.95
2023-10-09T17:26:24.750Z,11.18
2023-10-09T17:28:56.086Z,8.82
2023-10-09T17:31:28.007Z,9.98
2023-10-09T17:33:58.570Z,13.52
2023-10-09T17:36:27.714Z,11.80
2023-10-09T17:38:55.206Z,13.40
2023-10-09T17:41:23.172Z,11.48
2023-10-09T17:43:53.716Z,10.27
2023-10-09T17:46:20.722Z,10.10
2023-10-09T17:48:47.859Z,20.40
2023-10-09T17:51:16.614Z,35.72
2023-10-09T17:53:44.456Z,19.27
2023-10-09T17:56:11.748Z,15.60
2023-10-09T17:58:39.406Z,12.63
2023-10-09T18:01:07.805Z,12.48
2023-10-09T18:03:35.503Z,12.85
2023-10-09T18:06:05.215Z,12.75
2023-10-09T18:08:32.122Z,12.23
2023-10-09T18:11:01.541Z,11.38
2023-10-09T18:13:28.750Z,12.80
2023-10-09T18:16:09.728Z,13.32
2023-10-09T18:18:44.932Z,12.82
2023-10-09T18:21:11.927Z,12.85
2023-10-09T18:23:46.065Z,17.25
2023-10-09T18:26:18.162Z,13.85
2023-10-09T18:28:46.703Z,13.18
2023-10-09T18:31:15.087Z,10.10
2023-10-09T18:33:44.972Z,11.63
2023-10-09T18:36:12.750Z,11.95
2023-10-09T18:38:40.334Z,10.80
2023-10-09T18:41:08.670Z,12.77
2023-10-09T18:43:36.442Z,12.07
2023-10-09T18:46:12.021Z,12.75
2023-10-09T18:48:39.286Z,13.00
2023-10-09T18:51:08.900Z,11.98
2023-10-09T18:53:35.983Z,11.15
2023-10-09T18:56:03.373Z,10.73
2023-10-09T18:58:30.466Z,11.27
2023-10-09T19:01:03.460Z,9.90
2023-10-09T19:03:31.284Z,10.00
2023-10-09T19:05:58.403Z,9.23
2023-10-09T19:08:25.450Z,9.30
2023-10-09T19:11:02.711Z,9.90
2023-10-09T19:13:31.333Z,38.30
2023-10-09T19:15:58.432Z,13.50
2023-10-09T19:18:26.341Z,10.05
2023-10-09T19:20:54.512Z,9.70
2023-10-09T19:23:21.774Z,9.00
2023-10-09T19:25:48.946Z,7.55
2023-10-09T19:28:16.519Z,7.03
2023-10-09T19:30:45.557Z,7.47
2023-10-09T19:33:13.366Z,6.93
2023-10-09T19:35:42.146Z,6.70
2023-10-09T19:38:09.563Z,5.75
2023-10-09T19:40:36.937Z,6.90
2023-10-09T19:43:06.491Z,7.70
2023-10-09T19:45:33.768Z,7.78
2023-10-09T19:48:03.647Z,5.85
2023-10-09T19:50:30.570Z,6.00
2023-10-09T19:52:57.578Z,5.88
2023-10-09T19:55:24.700Z,6.18
2023-10-09T19:57:52.821Z,6.75
2023-10-09T20:04:33.354Z,6.83
2023-10-09T20:07:03.403Z,5.90
2023-10-09T20:09:30.526Z,5.70
2023-10-09T20:11:57.682Z,6.93
2023-10-09T20:14:24.929Z,6.05
2023-10-09T20:16:52.083Z,6.03
2023-10-09T20:19:20.834Z,6.78
2023-10-09T20:21:48.872Z,6.57
2023-10-09T20:24:15.806Z,5.50
2023-10-09T20:26:45.022Z,5.85
2023-10-09T20:29:16.255Z,5.40
2023-10-09T20:31:49.005Z,6.30
2023-10-09T20:34:20.881Z,5.63
2023-10-09T20:36:49.929Z,5.60
2023-10-09T20:39:22.952Z,6.45
2023-10-09T20:41:52.185Z,6.50
2023-10-09T20:44:21.055Z,7.43
2023-10-09T20:46:56.267Z,7.90
2023-10-09T20:49:25.143Z,7.95
2023-10-09T20:51:57.508Z,8.32
2023-10-09T20:54:27.719Z,8.13
2023-10-09T20:56:56.470Z,8.15
2023-10-09T20:59:25.159Z,8.23
2023-10-09T21:04:53.869Z,9.43
2023-10-09T21:07:21.040Z,9.13
2023-10-09T21:09:49.500Z,10.18
2023-10-09T21:12:19.852Z,11.23
2023-10-09T21:14:47.186Z,10.32
2023-10-09T21:17:17.273Z,10.13
2023-10-09T21:19:44.881Z,9.57
2023-10-09T21:22:11.842Z,10.00
2023-10-09T21:24:39.181Z,9.95
2023-10-09T21:27:06.225Z,9.48
2023-10-09T21:29:33.864Z,10.20
2023-10-09T21:32:00.955Z,10.60
2023-10-09T21:34:28.508Z,9.10
2023-10-09T21:36:56.087Z,9.45
2023-10-09T21:39:23.134Z,8.77
2023-10-09T21:41:50.199Z,8.07
2023-10-09T21:44:17.190Z,8.95
2023-10-09T21:46:44.112Z,8.55
2023-10-09T21:49:11.924Z,8.27
2023-10-09T21:51:39.163Z,8.57
2023-10-09T21:54:06.494Z,7.70
2023-10-09T21:56:33.901Z,7.88
2023-10-09T21:59:01.012Z,7.78
2023-10-09T22:01:29.352Z,8.05
2023-10-09T22:03:56.555Z,7.25
2023-10-09T22:06:27.697Z,7.82
2023-10-09T22:08:54.942Z,6.90
2023-10-09T22:11:22.289Z,7.10
2023-10-09T22:13:49.398Z,7.40
2023-10-09T22:16:16.626Z,7.45
2023-10-09T22:18:49.861Z,7.03
2023-10-09T22:21:17.440Z,7.25
2023-10-09T22:23:48.186Z,6.97
2023-10-09T22:26:21.767Z,7.43
2023-10-09T22:28:49.509Z,7.75
2023-10-09T22:31:17.655Z,7.28
2023-10-09T22:33:51.008Z,8.15
2023-10-09T22:36:46.929Z,6.75
2023-10-09T22:39:26.469Z,6.25
2023-10-09T22:41:56.042Z,6.82
2023-10-09T22:44:23.635Z,7.07
2023-10-09T22:46:53.417Z,6.75
2023-10-09T22:49:20.829Z,6.63
2023-10-09T22:51:54.180Z,5.60
2023-10-09T22:54:36.946Z,5.82
2023-10-09T22:57:07.274Z,5.53
2023-10-09T22:59:45.471Z,5.30
2023-10-09T23:02:24.131Z,5.60
2023-10-09T23:05:06.102Z,5.95
2023-10-09T23:07:34.075Z,5.60
2023-10-09T23:10:16.718Z,5.32
2023-10-09T23:12:50.183Z,5.70
2023-10-09T23:15:34.542Z,4.85
2023-10-09T23:18:11.787Z,5.32
2023-10-09T23:20:50.040Z,5.25
2023-10-09T23:23:26.401Z,4.53
2023-10-09T23:28:41.409Z,5.28
2023-10-09T23:31:23.803Z,5.80
2023-10-09T23:33:58.452Z,5.85
2023-10-09T23:36:30.602Z,6.72
2023-10-09T23:39:16.668Z,6.25
2023-10-09T23:42:00.220Z,6.73
2023-10-09T23:44:36.036Z,5.60
2023-10-09T23:47:10.770Z,6.10
2023-10-09T23:49:40.229Z,7.13
2023-10-09T23:52:09.041Z,6.40
2023-10-09T23:54:38.069Z,5.95
2023-10-09T23:57:05.559Z,6.38
2023-10-09T23:59:41.523Z,7.00
